Share

البصرة, العراق

Basrah International (ORMM) Elev 7 ft | 30.52 °N, 47.78 °E | Change Station

Current weather conditions updated 45 minutes ago

Clear
صافية
93 °F
Feels Like 93 °F
N
18
ريح متغير ريح from WNW
شروق الشمس 5:17 AM
غروب الشمس 6:19 PM
قمر الأحدب الأخير

Tomorrow is forecast to be Warmer than today.

الضغط 29.89 في
وضوح الرؤية 5.0 أميال
سحابات صافية
نقطة الندى 45 °F
الرطوبة 19%
Rainfall 0.00 في
عمق الثلج Not available.
الأشعة فوق البنفسجية 1 out of 16
Pollen Not available.
جودة الهواء Not available.
Flu Activity Not available.
METAR ORMM 191400Z 29016KT 8000 SKC 34/07 Q1012 NOSIG

More Conditions Fewer Conditions

الضغط 29.89 في
وضوح الرؤية 5.0 أميال
سحابات صافية
نقطة الندى 45 °F
الرطوبة 19%
Rainfall 0.00 في
عمق الثلج Not available.
الأشعة فوق البنفسجية 1 out of 16
Pollen Not available.
جودة الهواء Not available.
Flu Activity Not available.
METAR ORMM 191400Z 29016KT 8000 SKC 34/07 Q1012 NOSIG

More Conditions Fewer Conditions

10-Day Weather Forecast

Almanac

علم الفلك

Apr. 19, 2014 Rise Set
Actual Time 5:17 AM AST 6:19 PM AST
Civil Twilight 4:52 AM AST 6:43 PM AST
Nautical Twilight 4:23 AM AST 7:13 PM AST
Astronomical Twilight 3:52 AM AST 7:43 PM AST
قمر 10:30 PM AST 8:22 AM AST
Length Of Visible Light 13h 51m
طول الیوم
13h 01m
Tomorrow will be 1m 43s longer.
الأحدب الأخير, 79% of the Moon is Illuminated
هذا اليوم
الأحدب الأخير
Apr 22
الربع الآخر
Apr 29
New
May 6
الربع الاول
May 14
بدر

Today's Extremes

Country Highs Country Lows

Community

  • A Glorious Morning
    A Glorious Morning
  • Tender Rays Of Hope
    Tender Rays Of Hope
  • Bleeding Hearts
    Bleeding Hearts
  • Sunset Silhouettes
    Sunset Silhouettes
  • FL sunset Perico Isle
    FL sunset Perico Isle

WunderPhotos

Upload Photos

1,702,755 photos uploaded!

WunderBlogs® & News

Nearby

جودة الهواء

Not available.

عمق الثلج

Not available.

Coastal Water Temperatures

مكان درجات الحرارة
No Stations Reporting

Earthquake Activity

City Distance Mag. Time & Date
No recent earthquake activity has been reported nearby.
Minimum magnitude displayed is 2.5.

Nearby Weather Stations

There are no personal weather stations in this area.

What do you think?

We're not finished. Please let us know what you like, what you don't like, and what you are still missing.